Time;durP1;ratioP1;P1;durP2;ratioP2;P2;SDS_P1;SDS_P2;PMS_P1;PMS_P2;Temp;Humidity;BMP_temperature;BMP_pressure;BME280_temperature;BME280_humidity;BME280_pressure;Samples;Min_cycle;Max_cycle;Signal;HPM_P1;HPM_P2
2023/04/18 00:00:16;;;;;;;9.63;7.15;;;11.10;99.90;;;;;;4958842;28;20027;-69
2023/04/18 00:02:42;;;;;;;8.98;7.10;;;11.10;99.90;;;;;;4958842;28;20031;-70
2023/04/18 00:05:08;;;;;;;10.65;8.18;;;11.00;99.90;;;;;;4958922;28;20020;-70
2023/04/18 00:07:34;;;;;;;7.82;6.32;;;10.90;99.90;;;;;;4958851;28;20392;-69
2023/04/18 00:10:04;;;;;;;9.32;6.93;;;10.80;99.90;;;;;;4957611;28;20023;-69
2023/04/18 00:12:30;;;;;;;6.97;6.28;;;10.70;99.90;;;;;;4958811;28;20023;-70
2023/04/18 00:14:57;;;;;;;9.23;7.70;;;10.60;99.90;;;;;;4957342;29;20042;-70
2023/04/18 00:17:26;;;;;;;8.05;6.28;;;10.50;99.90;;;;;;4958660;28;20055;-69
2023/04/18 00:19:52;;;;;;;7.80;7.00;;;10.50;99.90;;;;;;4958757;28;20024;-69
2023/04/18 00:22:21;;;;;;;8.15;6.95;;;10.40;99.90;;;;;;4958484;28;20070;-69
2023/04/18 00:24:48;;;;;;;7.80;6.85;;;10.20;99.90;;;;;;4959570;28;20142;-70
2023/04/18 00:27:15;;;;;;;8.13;7.07;;;10.10;99.90;;;;;;4962405;28;20022;-70
2023/04/18 00:29:41;;;;;;;9.48;7.15;;;9.90;99.90;;;;;;4962601;28;20035;-70
2023/04/18 00:32:07;;;;;;;8.02;7.22;;;9.80;99.90;;;;;;4962526;28;20025;-69
2023/04/18 00:34:33;;;;;;;8.25;7.07;;;9.70;99.90;;;;;;4962321;28;20035;-70
2023/04/18 00:36:58;;;;;;;8.23;7.32;;;9.60;99.90;;;;;;4962401;28;20031;-70
2023/04/18 00:39:24;;;;;;;9.55;7.85;;;9.60;99.90;;;;;;4961147;28;20027;-70
2023/04/18 00:41:50;;;;;;;8.05;6.85;;;9.50;99.90;;;;;;4962398;29;20024;-70
2023/04/18 00:44:15;;;;;;;8.88;7.13;;;9.40;99.90;;;;;;4961826;28;20027;-69
2023/04/18 00:46:41;;;;;;;8.82;7.53;;;9.30;99.90;;;;;;4961598;29;20027;-70
2023/04/18 00:49:07;;;;;;;7.97;6.93;;;9.20;99.90;;;;;;4962138;28;20684;-70
2023/04/18 00:51:33;;;;;;;12.02;7.43;;;9.10;99.90;;;;;;4962177;29;20500;-69
2023/04/18 00:53:59;;;;;;;8.60;6.60;;;9.00;99.90;;;;;;4962020;28;20536;-70
2023/04/18 00:56:25;;;;;;;10.43;8.13;;;9.00;99.90;;;;;;4961941;29;20023;-70
2023/04/18 00:58:51;;;;;;;7.70;6.90;;;8.90;99.90;;;;;;4961747;28;20082;-70
2023/04/18 01:01:17;;;;;;;8.45;7.45;;;8.80;99.90;;;;;;4961841;28;20081;-70
2023/04/18 01:03:42;;;;;;;10.55;7.93;;;8.70;99.90;;;;;;4961884;28;20039;-69
2023/04/18 01:06:08;;;;;;;9.70;8.38;;;8.70;99.90;;;;;;4961430;28;20024;-69
2023/04/18 01:08:35;;;;;;;9.45;7.50;;;8.90;99.90;;;;;;4960711;28;20031;-69
2023/04/18 01:11:00;;;;;;;10.80;8.30;;;9.00;99.90;;;;;;4961692;28;20098;-69
2023/04/18 01:13:26;;;;;;;10.43;8.60;;;9.10;99.90;;;;;;4961711;28;20027;-69
2023/04/18 01:15:53;;;;;;;10.43;8.27;;;9.20;99.90;;;;;;4961653;28;20031;-70
2023/04/18 01:18:19;;;;;;;9.85;8.43;;;9.30;99.90;;;;;;4960363;28;20127;-70
2023/04/18 01:20:47;;;;;;;10.70;8.50;;;9.40;99.90;;;;;;4961429;28;20075;-70
2023/04/18 01:23:14;;;;;;;11.23;8.65;;;9.40;99.90;;;;;;4961506;28;20055;-70
2023/04/18 01:25:40;;;;;;;8.93;7.60;;;9.40;99.90;;;;;;4961584;29;20019;-69
2023/04/18 01:28:06;;;;;;;10.20;8.85;;;9.30;99.90;;;;;;4958984;28;20106;-69
2023/04/18 01:30:33;;;;;;;9.60;8.35;;;9.20;99.90;;;;;;4960135;28;20022;-70
2023/04/18 01:33:03;;;;;;;9.43;7.95;;;9.20;99.90;;;;;;4960145;28;20035;-69
2023/04/18 01:35:29;;;;;;;;;;;9.20;99.90;;;;;;4961482;28;20047;-69
2023/04/18 01:37:56;;;;;;;9.73;8.23;;;9.20;99.90;;;;;;4961256;28;19906;-70
2023/04/18 01:40:22;;;;;;;9.50;8.10;;;9.20;99.90;;;;;;4961271;28;20115;-69
2023/04/18 01:42:48;;;;;;;10.82;8.52;;;9.20;99.90;;;;;;4960824;28;20447;-69
2023/04/18 01:45:14;;;;;;;9.52;8.25;;;9.20;99.90;;;;;;4961146;29;20162;-69
2023/04/18 01:47:40;;;;;;;10.40;9.00;;;9.30;99.90;;;;;;4961122;29;20024;-69
2023/04/18 01:50:06;;;;;;;9.07;7.93;;;9.40;99.90;;;;;;4960894;28;20486;-69
2023/04/18 01:52:32;;;;;;;12.00;8.52;;;9.30;99.90;;;;;;4960954;28;20019;-69
2023/04/18 01:54:58;;;;;;;9.70;8.32;;;9.30;99.90;;;;;;4960993;28;20030;-69
2023/04/18 01:57:23;;;;;;;9.35;8.45;;;9.30;99.90;;;;;;4959582;28;20031;-69
2023/04/18 01:59:49;;;;;;;10.82;8.73;;;9.20;99.90;;;;;;4960728;28;20033;-70
2023/04/18 02:02:15;;;;;;;11.18;8.88;;;9.20;99.90;;;;;;4960857;28;20020;-69
2023/04/18 02:04:40;;;;;;;10.43;8.98;;;9.10;99.90;;;;;;4960732;28;20032;-69
2023/04/18 02:07:06;;;;;;;9.50;8.50;;;9.00;99.90;;;;;;4959369;29;20023;-69
2023/04/18 02:09:32;;;;;;;10.10;8.80;;;9.00;99.90;;;;;;4960760;28;20026;-70
2023/04/18 02:11:58;;;;;;;9.45;8.45;;;9.00;99.90;;;;;;4960670;28;20023;-70
2023/04/18 02:14:31;;;;;;;9.82;8.75;;;9.00;99.90;;;;;;4960368;28;20035;-70
2023/04/18 02:16:57;;;;;;;9.57;8.00;;;8.90;99.90;;;;;;4960660;28;20051;-69
2023/04/18 02:19:23;;;;;;;10.50;9.45;;;8.80;99.90;;;;;;4959232;28;20027;-69
2023/04/18 02:21:49;;;;;;;13.05;10.23;;;8.80;99.90;;;;;;4960394;28;20047;-69
2023/04/18 02:24:15;;;;;;;11.85;10.20;;;8.80;99.90;;;;;;4959687;28;20078;-70
2023/04/18 02:26:42;;;;;;;11.98;9.00;;;8.80;99.90;;;;;;4960206;28;20027;-69
2023/04/18 02:29:07;;;;;;;12.68;9.68;;;8.80;99.90;;;;;;4960436;28;20023;-69
2023/04/18 02:31:33;;;;;;;12.57;9.18;;;8.80;99.90;;;;;;4960212;28;20550;-69
2023/04/18 02:33:59;;;;;;;14.23;9.73;;;8.80;99.90;;;;;;4960185;28;20039;-70
2023/04/18 02:36:26;;;;;;;12.82;10.15;;;8.80;99.90;;;;;;4960062;28;20094;-70
2023/04/18 02:38:53;;;;;;;11.30;9.52;;;8.70;99.90;;;;;;4960283;28;20043;-70
2023/04/18 02:41:19;;;;;;;13.32;9.23;;;8.70;99.90;;;;;;4960078;28;20033;-69
2023/04/18 02:43:45;;;;;;;11.40;8.63;;;8.70;99.90;;;;;;4958649;28;20058;-70
2023/04/18 02:46:11;;;;;;;12.98;10.48;;;8.60;99.90;;;;;;4958129;28;20393;-70
2023/04/18 02:48:36;;;;;;;12.02;10.57;;;8.60;99.90;;;;;;4958212;28;20806;-69
2023/04/18 02:51:04;;;;;;;13.65;10.65;;;8.60;99.90;;;;;;4958621;28;20023;-69
2023/04/18 02:53:30;;;;;;;12.13;10.52;;;8.60;99.90;;;;;;4960030;28;20027;-70
2023/04/18 02:55:55;;;;;;;12.10;9.88;;;8.50;99.90;;;;;;4959862;28;20028;-69
2023/04/18 02:58:21;;;;;;;11.43;9.70;;;8.40;99.90;;;;;;4959510;28;20023;-69
2023/04/18 03:00:49;;;;;;;13.52;10.85;;;8.40;99.90;;;;;;4959430;28;20038;-69
2023/04/18 03:03:15;;;;;;;11.27;9.68;;;8.40;99.90;;;;;;4959293;28;20088;-69
2023/04/18 03:05:41;;;;;;;15.20;10.95;;;8.40;99.90;;;;;;4958997;29;20027;-69
2023/04/18 03:08:07;;;;;;;15.43;10.93;;;8.40;99.90;;;;;;4959266;28;20096;-70
2023/04/18 03:10:33;;;;;;;12.18;10.88;;;8.50;99.90;;;;;;4959667;28;20420;-69
2023/04/18 03:12:58;;;;;;;11.32;9.73;;;8.50;99.90;;;;;;4958081;28;20028;-69
2023/04/18 03:15:24;;;;;;;14.43;10.82;;;8.50;99.90;;;;;;4959553;28;20023;-69
2023/04/18 03:17:50;;;;;;;13.65;11.43;;;8.50;99.90;;;;;;4959338;29;20023;-70
2023/04/18 03:20:16;;;;;;;12.35;9.85;;;8.40;99.90;;;;;;4959159;28;20562;-70
2023/04/18 03:22:42;;;;;;;14.15;10.05;;;8.40;99.90;;;;;;4959310;28;20023;-70
2023/04/18 03:25:08;;;;;;;12.93;10.40;;;8.40;99.90;;;;;;4959290;28;20015;-70
2023/04/18 03:27:34;;;;;;;12.55;10.45;;;8.40;99.90;;;;;;4958637;28;20063;-70
2023/04/18 03:30:00;;;;;;;13.65;10.50;;;8.40;99.90;;;;;;4959409;28;20020;-69
2023/04/18 03:32:26;;;;;;;13.00;10.85;;;8.30;99.90;;;;;;4959085;28;20019;-69
2023/04/18 03:34:51;;;;;;;12.45;10.95;;;8.40;99.90;;;;;;4957714;29;20043;-69
2023/04/18 03:37:17;;;;;;;14.13;10.68;;;8.40;99.90;;;;;;4958022;28;20040;-69
2023/04/18 03:39:43;;;;;;;13.27;10.32;;;8.50;99.90;;;;;;4959221;28;20031;-69
2023/04/18 03:42:09;;;;;;;14.32;10.70;;;8.40;99.90;;;;;;4959213;29;20032;-69
2023/04/18 03:44:34;;;;;;;11.15;9.52;;;8.40;99.90;;;;;;4958924;28;20023;-70
2023/04/18 03:47:00;;;;;;;12.85;10.75;;;8.10;99.90;;;;;;4959002;28;20031;-69
2023/04/18 03:49:26;;;;;;;13.18;10.05;;;7.80;99.90;;;;;;4959099;28;20476;-70
2023/04/18 03:51:52;;;;;;;13.80;10.82;;;7.60;99.90;;;;;;4958901;28;20034;-70
2023/04/18 03:54:17;;;;;;;13.15;10.35;;;7.40;99.90;;;;;;4959087;29;20020;-70
2023/04/18 03:56:43;;;;;;;13.02;11.32;;;7.30;99.90;;;;;;4958972;29;20066;-69
2023/04/18 03:59:10;;;;;;;13.27;11.45;;;7.20;99.90;;;;;;4958757;28;20078;-69
2023/04/18 04:01:36;;;;;;;13.68;10.85;;;7.10;99.90;;;;;;4957571;28;20027;-69
2023/04/18 04:04:02;;;;;;;12.52;11.23;;;7.00;99.90;;;;;;4957506;29;20051;-70
2023/04/18 04:06:28;;;;;;;14.00;10.70;;;6.90;99.90;;;;;;4958678;28;20062;-70
2023/04/18 04:08:53;;;;;;;16.00;11.65;;;6.80;99.90;;;;;;4958998;29;20038;-70
2023/04/18 04:11:19;;;;;;;15.05;11.85;;;6.70;99.90;;;;;;4958825;28;20082;-69
2023/04/18 04:13:45;;;;;;;12.25;9.93;;;6.70;99.90;;;;;;4957479;29;20067;-70
2023/04/18 04:16:10;;;;;;;12.13;10.45;;;6.70;99.90;;;;;;4958644;29;20035;-70
2023/04/18 04:18:36;;;;;;;14.00;10.95;;;6.60;99.90;;;;;;4958688;29;20023;-70
2023/04/18 04:21:02;;;;;;;14.75;10.45;;;6.60;99.90;;;;;;4958613;28;20055;-70
2023/04/18 04:23:27;;;;;;;16.60;11.73;;;6.60;99.90;;;;;;4958109;29;20035;-70
2023/04/18 04:25:54;;;;;;;13.60;11.32;;;6.50;99.90;;;;;;4957567;29;20098;-69
2023/04/18 04:28:25;;;;;;;12.50;10.82;;;6.50;99.90;;;;;;4957035;29;20082;-69
2023/04/18 04:30:51;;;;;;;15.07;12.15;;;6.40;99.90;;;;;;4958606;28;20075;-69
2023/04/18 04:33:18;;;;;;;15.15;11.65;;;6.40;99.90;;;;;;4958316;29;20087;-69
2023/04/18 04:35:47;;;;;;;12.15;10.65;;;6.40;99.90;;;;;;4957364;28;20031;-69
2023/04/18 04:38:14;;;;;;;15.30;12.77;;;6.30;99.90;;;;;;4958662;29;20190;-69
2023/04/18 04:40:40;;;;;;;15.70;12.25;;;6.40;99.90;;;;;;4958511;28;20093;-69
2023/04/18 04:43:05;;;;;;;14.80;12.07;;;6.60;99.90;;;;;;4958167;28;20019;-69
2023/04/18 04:45:32;;;;;;;17.35;12.45;;;6.80;99.90;;;;;;4958477;28;20392;-69
2023/04/18 04:47:58;;;;;;;14.20;11.32;;;6.90;99.90;;;;;;4957077;29;20504;-69
2023/04/18 04:50:24;;;;;;;15.18;11.40;;;6.90;99.90;;;;;;4958475;28;20073;-69
2023/04/18 04:52:50;;;;;;;19.13;11.65;;;6.90;99.90;;;;;;4957114;28;20170;-69
2023/04/18 04:55:17;;;;;;;12.73;10.90;;;6.80;99.90;;;;;;4958359;28;20019;-69
2023/04/18 04:57:43;;;;;;;15.90;11.48;;;6.60;99.90;;;;;;4958050;28;20023;-69
2023/04/18 05:00:10;;;;;;;14.48;11.57;;;6.50;99.90;;;;;;4957228;28;20031;-69
2023/04/18 05:02:36;;;;;;;29.33;12.73;;;6.40;99.90;;;;;;4956958;28;20020;-69
2023/04/18 05:05:01;;;;;;;12.68;11.10;;;6.30;99.90;;;;;;4958326;28;20118;-69
2023/04/18 05:07:27;;;;;;;12.40;11.10;;;6.30;99.90;;;;;;4958249;28;20059;-69
2023/04/18 05:09:53;;;;;;;14.43;11.88;;;6.20;99.90;;;;;;4957163;28;20094;-69
2023/04/18 05:12:19;;;;;;;19.42;12.80;;;6.20;99.90;;;;;;4959945;29;20366;-69
2023/04/18 05:14:44;;;;;;;13.10;11.63;;;6.10;99.90;;;;;;4961832;28;20369;-69
2023/04/18 05:17:10;;;;;;;13.55;11.20;;;6.10;99.90;;;;;;4961557;28;20031;-69
2023/04/18 05:19:36;;;;;;;16.75;11.18;;;6.10;99.90;;;;;;4961870;29;20071;-69
2023/04/18 05:22:01;;;;;;;15.13;11.48;;;6.00;99.90;;;;;;4960723;29;20066;-69
2023/04/18 05:24:27;;;;;;;14.98;12.13;;;6.00;99.90;;;;;;4961627;28;20031;-69
2023/04/18 05:26:53;;;;;;;15.90;11.90;;;6.00;99.90;;;;;;4961245;28;20050;-69
2023/04/18 05:29:19;;;;;;;16.92;11.35;;;6.00;99.90;;;;;;4961424;28;20047;-69
2023/04/18 05:31:44;;;;;;;14.48;12.30;;;6.00;99.90;;;;;;4961322;28;20028;-69
2023/04/18 05:34:10;;;;;;;15.57;12.52;;;6.00;99.90;;;;;;4960175;28;20114;-69
2023/04/18 05:36:36;;;;;;;14.88;11.98;;;6.10;99.90;;;;;;4959923;28;20030;-69
2023/04/18 05:39:02;;;;;;;16.67;12.27;;;6.10;99.90;;;;;;4961333;28;20027;-69
2023/04/18 05:41:27;;;;;;;17.67;12.32;;;6.20;99.90;;;;;;4961304;28;20115;-69
2023/04/18 05:43:53;;;;;;;14.43;11.27;;;6.20;99.90;;;;;;4961072;29;20035;-69
2023/04/18 05:46:19;;;;;;;14.65;13.15;;;6.30;99.90;;;;;;4959704;28;20097;-69
2023/04/18 05:48:44;;;;;;;16.63;12.38;;;6.30;99.90;;;;;;4961265;28;20488;-69
2023/04/18 05:51:10;;;;;;;13.77;11.73;;;6.40;99.90;;;;;;4960962;28;20092;-69
2023/04/18 05:53:36;;;;;;;21.10;12.00;;;6.50;99.90;;;;;;4961301;29;20098;-69
2023/04/18 05:56:01;;;;;;;13.50;11.52;;;6.50;99.90;;;;;;4961014;28;20031;-69
2023/04/18 05:58:27;;;;;;;12.57;11.27;;;6.50;99.90;;;;;;4960733;28;20380;-69
2023/04/18 06:00:53;;;;;;;12.63;11.13;;;6.50;99.90;;;;;;4960922;28;20027;-69
2023/04/18 06:03:19;;;;;;;19.20;10.50;;;6.60;99.90;;;;;;4960724;28;20031;-69
2023/04/18 06:05:44;;;;;;;14.57;11.13;;;6.70;99.90;;;;;;4959533;28;20114;-70
2023/04/18 06:08:10;;;;;;;16.48;11.13;;;6.90;99.90;;;;;;4960739;28;20024;-70
2023/04/18 06:10:36;;;;;;;15.45;12.07;;;6.90;99.90;;;;;;4959564;28;20058;-70
2023/04/18 06:13:01;;;;;;;16.65;12.40;;;7.00;99.90;;;;;;4959027;28;20035;-70
2023/04/18 06:15:28;;;;;;;19.83;13.50;;;7.00;99.90;;;;;;4959436;28;20500;-70
2023/04/18 06:17:53;;;;;;;17.70;11.73;;;7.10;99.90;;;;;;4960652;28;20458;-70
2023/04/18 06:20:19;;;;;;;18.33;12.85;;;7.30;99.90;;;;;;4960393;29;20098;-70
2023/04/18 06:22:45;;;;;;;16.45;11.60;;;7.40;99.90;;;;;;4959495;28;20035;-70
2023/04/18 06:25:10;;;;;;;17.60;12.88;;;7.60;99.90;;;;;;4960702;29;20098;-69
2023/04/18 06:27:36;;;;;;;15.52;12.60;;;7.70;99.90;;;;;;4958865;28;20027;-70
2023/04/18 06:30:04;;;;;;;13.88;11.85;;;7.80;99.90;;;;;;4959234;28;20027;-70
2023/04/18 06:32:30;;;;;;;20.33;12.68;;;8.10;99.90;;;;;;4959487;28;20416;-69
2023/04/18 06:34:56;;;;;;;15.02;12.93;;;8.40;99.90;;;;;;4960256;28;20031;-70
2023/04/18 06:37:22;;;;;;;19.75;13.85;;;8.60;99.90;;;;;;4960807;29;20610;-70
2023/04/18 06:39:47;;;;;;;22.23;13.65;;;8.80;99.90;;;;;;4960485;29;20027;-70
2023/04/18 06:42:13;;;;;;;17.42;14.05;;;8.90;99.90;;;;;;4960748;28;20046;-69
2023/04/18 06:44:39;;;;;;;16.73;12.15;;;8.90;99.90;;;;;;4960038;29;20015;-70
2023/04/18 06:47:05;;;;;;;16.60;12.00;;;8.80;99.90;;;;;;4960436;28;20494;-69
2023/04/18 06:49:30;;;;;;;17.90;13.75;;;8.90;99.90;;;;;;4960269;29;20023;-69
2023/04/18 06:51:56;;;;;;;18.42;14.15;;;9.00;99.90;;;;;;4960369;29;20042;-69
2023/04/18 06:54:21;;;;;;;18.67;13.30;;;9.00;99.90;;;;;;4958980;28;20027;-69
2023/04/18 06:56:47;;;;;;;22.75;13.65;;;9.00;99.90;;;;;;4960317;29;20504;-70
2023/04/18 06:59:13;;;;;;;15.15;11.98;;;9.00;99.90;;;;;;4960181;29;20492;-69
2023/04/18 07:01:42;;;;;;;14.93;12.73;;;9.10;99.90;;;;;;4958957;29;20435;-69
2023/04/18 07:04:08;;;;;;;15.85;13.15;;;9.10;99.90;;;;;;4958555;28;20082;-70
2023/04/18 07:06:35;;;;;;;16.20;12.85;;;9.20;99.90;;;;;;4960150;28;20030;-69
2023/04/18 07:09:01;;;;;;;17.23;13.20;;;9.40;99.90;;;;;;4960013;28;20078;-69
2023/04/18 07:11:27;;;;;;;15.38;12.85;;;9.60;99.90;;;;;;4960149;29;20027;-69
2023/04/18 07:13:52;;;;;;;17.23;12.50;;;9.70;99.90;;;;;;4959642;29;20027;-69
2023/04/18 07:16:19;;;;;;;15.65;12.52;;;9.80;99.90;;;;;;4960106;29;20874;-69
2023/04/18 07:18:44;;;;;;;15.68;12.40;;;10.00;99.90;;;;;;4959633;29;20579;-69
2023/04/18 07:21:10;;;;;;;17.55;13.02;;;9.90;99.90;;;;;;4959859;28;20090;-70
2023/04/18 07:23:36;;;;;;;13.95;11.93;;;10.00;99.90;;;;;;4959525;28;20050;-69
2023/04/18 07:26:04;;;;;;;16.85;12.75;;;10.10;99.90;;;;;;4959742;28;20027;-69
2023/04/18 07:28:31;;;;;;;15.95;11.98;;;10.20;99.90;;;;;;4954698;28;20329;-70
2023/04/18 07:30:57;;;;;;;17.48;13.13;;;10.20;99.90;;;;;;4959670;29;20027;-69
2023/04/18 07:33:23;;;;;;;15.65;11.95;;;10.30;99.90;;;;;;4959180;28;20484;-70
2023/04/18 07:35:50;;;;;;;18.73;12.35;;;10.40;99.90;;;;;;4959613;29;20074;-69
2023/04/18 07:38:16;;;;;;;15.68;12.75;;;10.50;99.90;;;;;;4959485;28;20023;-69
2023/04/18 07:40:43;;;;;;;15.48;11.98;;;10.70;99.90;;;;;;4959561;28;20031;-70
2023/04/18 07:43:09;;;;;;;14.10;11.50;;;10.90;99.90;;;;;;4959060;29;20029;-69
2023/04/18 07:45:37;;;;;;;13.70;11.63;;;11.10;99.90;;;;;;4959516;29;20075;-69
2023/04/18 07:48:03;;;;;;;16.27;11.63;;;11.20;99.90;;;;;;4959213;28;20055;-69
2023/04/18 07:50:29;;;;;;;15.18;11.20;;;11.40;99.90;;;;;;4959408;28;20028;-69
2023/04/18 07:52:55;;;;;;;15.63;11.35;;;11.30;99.90;;;;;;4958004;28;20441;-69
2023/04/18 07:55:20;;;;;;;12.65;10.50;;;11.40;99.90;;;;;;4959356;29;20105;-70
2023/04/18 07:57:49;;;;;;;13.25;10.10;;;11.50;99.90;;;;;;4958988;29;20050;-70
2023/04/18 08:00:16;;;;;;;11.82;9.50;;;11.50;99.90;;;;;;4959376;28;20057;-70
2023/04/18 08:02:42;;;;;;;11.52;9.63;;;11.50;99.90;;;;;;4959241;28;20019;-69
2023/04/18 08:05:08;;;;;;;11.65;9.43;;;11.50;99.90;;;;;;4959130;29;20093;-69
2023/04/18 08:07:35;;;;;;;13.38;10.60;;;11.50;99.90;;;;;;4957738;29;20432;-69
2023/04/18 08:10:00;;;;;;;12.98;9.65;;;11.60;99.90;;;;;;4957961;28;20039;-69
2023/04/18 08:12:26;;;;;;;12.35;9.90;;;11.70;99.90;;;;;;4958894;28;20028;-70
2023/04/18 08:14:52;;;;;;;12.68;10.18;;;11.80;99.90;;;;;;4959359;29;20031;-69
2023/04/18 08:17:17;;;;;;;11.15;9.63;;;11.90;99.90;;;;;;4957759;28;20377;-69
2023/04/18 08:19:44;;;;;;;11.20;9.85;;;12.00;99.90;;;;;;4959066;29;20059;-69
2023/04/18 08:22:10;;;;;;;11.32;9.43;;;11.90;99.90;;;;;;4959018;28;20047;-69
2023/04/18 08:24:39;;;;;;;12.27;9.10;;;12.10;99.90;;;;;;4959006;28;20110;-70
2023/04/18 08:27:06;;;;;;;11.82;8.68;;;12.20;99.90;;;;;;4954154;28;20034;-69
2023/04/18 08:29:32;;;;;;;14.23;9.30;;;12.30;99.90;;;;;;4958858;29;20030;-69
2023/04/18 08:31:57;;;;;;;10.27;8.85;;;12.20;99.90;;;;;;4957628;28;20062;-69
2023/04/18 08:34:23;;;;;;;11.55;8.35;;;12.10;99.90;;;;;;4959003;29;20031;-69
2023/04/18 08:36:50;;;;;;;11.38;9.20;;;12.20;99.90;;;;;;4958892;29;20035;-69
2023/04/18 08:39:16;;;;;;;11.30;8.93;;;12.40;99.90;;;;;;4958995;29;20522;-69
2023/04/18 08:41:42;;;;;;;11.27;9.80;;;12.40;99.90;;;;;;4958908;29;20027;-69
2023/04/18 08:44:08;;;;;;;11.30;9.93;;;12.60;99.90;;;;;;4958584;28;20031;-69
2023/04/18 08:46:37;;;;;;;9.98;8.20;;;12.70;99.90;;;;;;4957061;28;20031;-69
2023/04/18 08:49:03;;;;;;;13.80;8.30;;;12.80;99.90;;;;;;4961231;29;20396;-69
2023/04/18 08:51:31;;;;;;;12.57;9.20;;;12.80;99.90;;;;;;4962436;28;20106;-70
2023/04/18 08:54:03;;;;;;;15.57;8.40;;;13.00;99.90;;;;;;4961256;29;20054;-69
2023/04/18 08:56:30;;;;;;;10.80;8.55;;;13.10;99.90;;;;;;4962392;28;20031;-69
2023/04/18 08:58:59;;;;;;;14.32;8.73;;;13.30;99.90;;;;;;4960942;28;20031;-69
2023/04/18 09:01:57;;;;;;;12.40;9.00;;;13.30;99.90;;;;;;4962280;29;20038;-70
2023/04/18 09:04:40;;;;;;;9.88;8.50;;;13.40;99.90;;;;;;4960779;29;20027;-70
2023/04/18 09:07:13;;;;;;;9.60;8.18;;;13.50;99.90;;;;;;4962275;28;20023;-69
2023/04/18 09:09:46;;;;;;;10.23;8.10;;;13.50;99.90;;;;;;4962363;29;20019;-70
2023/04/18 09:12:25;;;;;;;9.82;7.82;;;13.50;99.90;;;;;;4962104;28;20391;-69
2023/04/18 09:15:12;;;;;;;15.32;8.73;;;13.60;99.90;;;;;;4962287;28;20030;-69
2023/04/18 09:17:44;;;;;;;8.35;7.43;;;13.70;99.90;;;;;;4961940;28;20094;-69
2023/04/18 09:20:11;;;;;;;10.43;7.18;;;13.90;99.90;;;;;;4962130;29;20046;-69
2023/04/18 09:22:46;;;;;;;9.68;7.47;;;13.80;99.90;;;;;;4960555;28;20146;-69
2023/04/18 09:25:36;;;;;;;10.85;6.78;;;13.80;99.90;;;;;;4961830;29;20027;-70
2023/04/18 09:28:26;;;;;;;10.10;7.93;;;13.90;99.90;;;;;;4961618;28;20547;-69
2023/04/18 09:30:53;;;;;;;10.75;7.60;;;14.00;99.90;;;;;;4962075;29;20559;-69
2023/04/18 09:33:32;;;;;;;8.38;6.82;;;14.10;99.90;;;;;;4961681;28;20039;-69
2023/04/18 09:36:20;;;;;;;10.30;7.35;;;14.30;99.90;;;;;;4961890;28;20027;-69
2023/04/18 09:38:46;;;;;;;9.32;7.25;;;14.50;99.90;;;;;;4961453;29;20055;-70
2023/04/18 09:41:16;;;;;;;8.65;6.55;;;14.60;99.90;;;;;;4961584;28;20055;-69
2023/04/18 09:43:43;;;;;;;11.05;6.47;;;14.60;99.90;;;;;;4961221;28;20447;-69
2023/04/18 09:46:09;;;;;;;9.02;6.47;;;14.70;99.90;;;;;;4959926;28;20074;-68
2023/04/18 09:48:35;;;;;;;8.05;5.90;;;14.70;99.90;;;;;;4960268;28;20031;-70
2023/04/18 09:51:06;;;;;;;10.75;7.15;;;14.50;99.90;;;;;;4961303;29;20023;-69
2023/04/18 09:53:36;;;;;;;8.45;6.40;;;14.60;99.90;;;;;;4961832;29;20166;-70
2023/04/18 09:56:05;;;;;;;11.40;6.22;;;14.50;99.90;;;;;;4961450;28;20078;-69
2023/04/18 09:58:33;;;;;;;10.02;6.28;;;14.60;99.90;;;;;;4961023;28;20407;-69
2023/04/18 10:00:59;;;;;;;9.98;5.53;;;14.90;99.90;;;;;;4961341;28;20023;-69
2023/04/18 10:03:33;;;;;;;6.13;5.32;;;14.90;99.90;;;;;;4961123;29;20122;-69
2023/04/18 10:05:58;;;;;;;6.38;5.75;;;14.80;99.90;;;;;;4961216;28;20471;-69
2023/04/18 10:08:25;;;;;;;9.50;5.85;;;14.90;99.90;;;;;;4961087;29;20038;-70
2023/04/18 10:10:50;;;;;;;7.38;6.47;;;14.90;99.90;;;;;;4961220;28;20027;-70
2023/04/18 10:13:18;;;;;;;10.32;5.82;;;15.10;99.90;;;;;;4960964;29;20090;-70
2023/04/18 10:15:44;;;;;;;7.88;6.70;;;15.30;99.90;;;;;;4961012;28;20035;-70
2023/04/18 10:18:13;;;;;;;13.38;6.97;;;15.40;99.90;;;;;;4961137;28;20035;-70
2023/04/18 10:20:40;;;;;;;8.35;6.25;;;15.40;99.90;;;;;;4960561;29;20054;-69
2023/04/18 10:23:31;;;;;;;8.20;6.70;;;15.40;99.90;;;;;;4960881;28;20027;-70
2023/04/18 10:25:57;;;;;;;7.30;5.63;;;15.40;99.90;;;;;;4960919;28;20030;-70
2023/04/18 10:28:23;;;;;;;12.75;5.82;;;15.40;99.90;;;;;;4960441;28;20019;-69
2023/04/18 10:31:15;;;;;;;6.43;5.72;;;15.50;99.90;;;;;;4959551;29;20085;-70
2023/04/18 10:34:06;;;;;;;9.25;6.25;;;15.40;99.90;;;;;;4960081;28;20044;-70
2023/04/18 10:36:32;;;;;;;;;;;15.50;99.90;;;;;;4960715;28;20126;-70
2023/04/18 10:39:21;;;;;;;8.75;6.32;;;15.80;99.90;;;;;;4960876;29;19957;-70
2023/04/18 10:41:49;;;;;;;8.02;6.82;;;15.90;99.90;;;;;;4960378;28;20031;-70
2023/04/18 10:44:17;;;;;;;9.38;5.97;;;16.20;99.90;;;;;;4958733;28;20029;-70
2023/04/18 10:46:42;;;;;;;8.15;6.65;;;16.40;99.90;;;;;;4960319;28;20031;-70
2023/04/18 10:49:22;;;;;;;7.95;6.32;;;16.40;99.90;;;;;;4960396;29;20088;-70
2023/04/18 10:51:59;;;;;;;6.88;5.57;;;16.30;99.90;;;;;;4960187;29;20038;-70
2023/04/18 10:54:45;;;;;;;6.35;5.45;;;16.30;99.90;;;;;;4958947;28;20031;-70
2023/04/18 10:57:12;;;;;;;9.05;6.18;;;16.60;99.90;;;;;;4960152;29;20078;-70
2023/04/18 10:59:42;;;;;;;7.50;5.28;;;16.70;99.90;;;;;;4960158;29;20404;-70
2023/04/18 11:02:07;;;;;;;12.88;6.90;;;16.90;99.90;;;;;;4960624;28;20038;-70
2023/04/18 11:04:33;;;;;;;7.82;6.93;;;16.80;99.90;;;;;;4958643;29;20039;-71
2023/04/18 11:06:59;;;;;;;9.07;6.72;;;16.70;99.90;;;;;;4960168;29;20366;-70
2023/04/18 11:09:24;;;;;;;8.07;6.70;;;16.90;99.90;;;;;;4959479;28;20027;-70
2023/04/18 11:12:05;;;;;;;6.93;5.70;;;17.10;99.90;;;;;;4960045;28;20034;-70
2023/04/18 11:14:44;;;;;;;6.30;5.40;;;17.40;99.90;;;;;;4959972;28;20038;-70
2023/04/18 11:17:34;;;;;;;9.07;5.30;;;17.50;99.90;;;;;;4958490;28;20046;-70
2023/04/18 11:20:08;;;;;;;5.72;4.13;;;17.50;99.90;;;;;;4960110;29;20038;-70
2023/04/18 11:22:51;;;;;;;6.80;4.68;;;17.50;99.20;;;;;;4959632;29;20090;-70
2023/04/18 11:25:18;;;;;;;5.82;4.97;;;17.50;97.50;;;;;;4959692;29;20038;-71
2023/04/18 11:27:46;;;;;;;5.28;4.20;;;17.50;99.70;;;;;;4959638;28;20431;-70
2023/04/18 11:30:13;;;;;;;6.18;3.83;;;17.60;99.20;;;;;;4958370;28;20061;-70
2023/04/18 11:32:39;;;;;;;4.95;4.15;;;17.70;97.20;;;;;;4959749;28;20015;-70
2023/04/18 11:35:07;;;;;;;6.18;4.07;;;17.80;96.30;;;;;;4958231;28;20070;-70
2023/04/18 11:37:34;;;;;;;5.60;4.05;;;17.90;97.40;;;;;;4959654;28;20027;-68
2023/04/18 11:40:01;;;;;;;7.60;4.00;;;18.10;97.90;;;;;;4959466;28;20031;-70
2023/04/18 11:42:27;;;;;;;6.88;4.25;;;18.30;97.30;;;;;;4959341;28;20027;-70
2023/04/18 11:44:53;;;;;;;5.35;3.90;;;18.60;96.60;;;;;;4959323;29;20039;-70
2023/04/18 11:47:30;;;;;;;4.80;3.20;;;18.70;96.50;;;;;;4959537;28;20480;-70
2023/04/18 11:50:05;;;;;;;7.82;4.30;;;18.70;95.60;;;;;;4959215;28;20032;-68
2023/04/18 11:52:32;;;;;;;6.65;4.25;;;18.90;93.80;;;;;;4959386;29;20047;-71
2023/04/18 11:55:18;;;;;;;5.60;3.55;;;18.90;93.40;;;;;;4959338;28;20082;-68
2023/04/18 11:58:00;;;;;;;5.15;3.25;;;18.80;93.30;;;;;;4957716;28;20118;-68
2023/04/18 12:00:32;;;;;;;12.05;3.47;;;18.60;92.80;;;;;;4959390;28;20031;-69
2023/04/18 12:03:00;;;;;;;4.82;3.25;;;18.70;94.10;;;;;;4959270;29;20480;-69
2023/04/18 12:05:34;;;;;;;6.45;2.97;;;18.40;94.40;;;;;;4959274;28;20023;-69
2023/04/18 12:08:07;;;;;;;5.70;3.35;;;18.20;91.90;;;;;;4959140;28;20539;-68
2023/04/18 12:10:34;;;;;;;4.25;3.53;;;18.10;91.90;;;;;;4959065;29;20510;-68
2023/04/18 12:13:01;;;;;;;4.63;2.92;;;17.90;91.60;;;;;;4959117;29;20481;-68
2023/04/18 12:15:28;;;;;;;5.53;2.95;;;17.70;91.40;;;;;;4959122;28;20026;-69
2023/04/18 12:18:04;;;;;;;3.95;2.90;;;17.60;93.40;;;;;;4959292;29;20031;-69
2023/04/18 12:20:52;;;;;;;5.03;3.13;;;17.40;91.20;;;;;;4959209;28;20524;-69
2023/04/18 12:23:38;;;;;;;8.90;3.33;;;17.30;92.60;;;;;;4963015;28;20031;-70
2023/04/18 12:26:21;;;;;;;6.32;3.33;;;17.10;95.50;;;;;;4963156;28;20030;-69
2023/04/18 12:28:50;;;;;;;4.22;3.35;;;17.30;95.90;;;;;;4958851;29;20507;-68
2023/04/18 12:31:16;;;;;;;4.18;3.13;;;17.40;92.40;;;;;;4962917;28;20507;-69
2023/04/18 12:33:41;;;;;;;4.85;2.22;;;17.50;92.00;;;;;;4961387;28;20403;-68
2023/04/18 12:36:08;;;;;;;5.75;3.05;;;17.70;92.20;;;;;;4962877;29;20043;-69
2023/04/18 12:38:34;;;;;;;5.47;3.97;;;17.90;93.60;;;;;;4962831;28;20035;-69
2023/04/18 12:41:00;;;;;;;6.25;3.60;;;18.10;95.10;;;;;;4962954;28;20398;-69
2023/04/18 12:43:25;;;;;;;4.38;3.38;;;18.40;96.20;;;;;;4962321;28;20432;-70
2023/04/18 12:45:51;;;;;;;4.30;3.20;;;18.70;94.20;;;;;;4961395;28;20549;-69